Time;durP1;ratioP1;P1;durP2;ratioP2;P2;SDS_P1;SDS_P2;PMS_P1;PMS_P2;Temp;Humidity;BMP_temperature;BMP_pressure;BME280_temperature;BME280_humidity;BME280_pressure;Samples;Min_cycle;Max_cycle;Signal;HPM_P1;HPM_P2
2021/09/13 00:01:00;;;;;;;;;;;16.90;99.90;;;;;;5015341;28;20081;-81
2021/09/13 00:03:26;;;;;;;3.40;1.48;;;17.20;99.90;;;;;;4997210;28;19969;-81
2021/09/13 00:05:52;;;;;;;;;;;17.30;99.90;;;;;;5014934;28;20113;-81
2021/09/13 00:08:17;;;;;;;2.75;1.40;;;17.20;99.90;;;;;;5014599;28;20008;-81
2021/09/13 00:10:45;;;;;;;;;;;17.30;99.90;;;;;;5015039;28;20025;-81
2021/09/13 00:13:11;;;;;;;3.53;1.77;;;17.10;99.90;;;;;;5014600;28;19928;-81
2021/09/13 00:15:37;;;;;;;;;;;17.00;99.90;;;;;;5014925;28;20475;-81
2021/09/13 00:18:03;;;;;;;4.43;1.90;;;16.80;99.90;;;;;;4996890;28;19906;-81
2021/09/13 00:20:28;;;;;;;;;;;16.90;99.90;;;;;;5014767;28;20029;-81
2021/09/13 00:22:54;;;;;;;3.88;1.83;;;17.00;99.90;;;;;;5014396;28;19955;-80
2021/09/13 00:25:20;;;;;;;;;;;17.00;99.90;;;;;;4997026;28;20026;-81
2021/09/13 00:27:47;;;;;;;5.88;2.20;;;16.90;99.90;;;;;;5014263;28;19959;-81
2021/09/13 00:30:12;;;;;;;4.95;2.00;;;16.80;99.90;;;;;;5014525;28;20026;-81
2021/09/13 00:32:38;;;;;;;;;;;16.60;99.90;;;;;;4996962;28;20168;-81
2021/09/13 00:35:05;;;;;;;5.97;1.73;;;16.50;99.90;;;;;;5014207;28;20454;-81
2021/09/13 00:37:31;;;;;;;2.67;1.80;;;16.70;99.90;;;;;;5014128;28;20505;-81
2021/09/13 00:39:57;;;;;;;;;;;16.70;99.90;;;;;;5014483;28;20022;-80
2021/09/13 00:42:23;;;;;;;3.17;1.90;;;16.80;99.90;;;;;;4996433;28;19909;-81
2021/09/13 00:44:49;;;;;;;3.75;1.85;;;16.70;99.90;;;;;;4996451;28;20028;-81
2021/09/13 00:47:14;;;;;;;;;;;16.80;99.90;;;;;;4996714;28;20029;-81
2021/09/13 00:49:40;;;;;;;5.82;1.98;;;16.80;99.90;;;;;;4996367;28;20301;-81
2021/09/13 00:52:06;;;;;;;;;;;16.80;99.90;;;;;;5014367;28;20036;-81
2021/09/13 00:54:32;;;;;;;4.95;1.95;;;16.80;99.90;;;;;;5014087;28;20350;-81
2021/09/13 00:56:57;;;;;;;;;;;16.70;99.90;;;;;;5014330;28;20057;-81
2021/09/13 00:59:24;;;;;;;2.83;1.60;;;16.70;99.90;;;;;;5013922;28;19912;-81
2021/09/13 01:01:49;;;;;;;4.63;1.70;;;16.50;99.90;;;;;;4996273;28;20025;-81
2021/09/13 01:04:15;;;;;;;;;;;16.40;99.90;;;;;;5014209;28;20026;-81
2021/09/13 01:06:41;;;;;;;5.03;1.60;;;16.30;99.90;;;;;;4995845;28;20285;-82
2021/09/13 01:09:08;;;;;;;2.40;1.40;;;16.10;99.90;;;;;;5013492;28;20525;-81
2021/09/13 01:11:34;;;;;;;3.70;1.58;;;15.90;99.90;;;;;;4995960;28;20057;-81
2021/09/13 01:14:00;;;;;;;4.20;2.10;;;16.00;99.90;;;;;;5013625;28;20025;-80
2021/09/13 01:16:26;;;;;;;;;;;16.30;99.90;;;;;;5014401;28;20482;-80
2021/09/13 01:18:52;;;;;;;6.68;2.40;;;16.60;99.90;;;;;;4995963;28;19952;-79
2021/09/13 01:21:17;;;;;;;;;;;16.60;99.90;;;;;;5013893;28;20036;-79
2021/09/13 01:23:43;;;;;;;4.43;2.30;;;16.50;99.90;;;;;;5013501;28;19996;-79
2021/09/13 01:26:09;;;;;;;5.22;1.85;;;16.70;99.90;;;;;;5013406;28;20034;-78
2021/09/13 01:28:35;;;;;;;3.83;1.92;;;16.80;99.90;;;;;;5013396;28;20022;-79
2021/09/13 01:31:01;;;;;;;3.53;2.10;;;16.70;99.90;;;;;;4995762;28;20577;-79
2021/09/13 01:33:27;;;;;;;4.55;2.00;;;16.30;99.90;;;;;;5013466;28;20097;-79
2021/09/13 01:35:53;;;;;;;6.38;1.98;;;16.30;99.90;;;;;;4995463;28;20026;-79
2021/09/13 01:38:22;;;;;;;3.90;1.90;;;16.40;99.90;;;;;;5013575;28;20394;-79
2021/09/13 01:40:50;;;;;;;3.00;1.63;;;16.50;99.90;;;;;;4995735;28;20030;-78
2021/09/13 01:43:16;;;;;;;5.05;2.00;;;16.50;99.90;;;;;;5013350;28;20383;-78
2021/09/13 01:45:41;;;;;;;3.40;1.80;;;16.30;99.90;;;;;;5013252;28;20037;-78
2021/09/13 01:48:07;;;;;;;;;;;16.20;99.90;;;;;;5013812;28;20538;-79
2021/09/13 01:50:33;;;;;;;3.75;1.83;;;16.30;99.90;;;;;;5013407;28;20255;-79
2021/09/13 01:52:59;;;;;;;5.05;1.95;;;16.50;99.90;;;;;;5013269;28;20101;-78
2021/09/13 01:55:24;;;;;;;;;;;16.50;99.90;;;;;;5013734;28;20033;-79
2021/09/13 01:57:50;;;;;;;5.78;2.30;;;16.40;99.90;;;;;;5013506;28;20345;-79
2021/09/13 02:00:16;;;;;;;6.88;2.45;;;16.30;99.90;;;;;;5013159;28;20026;-78
2021/09/13 02:02:42;;;;;;;7.72;2.90;;;16.30;99.90;;;;;;5013124;28;20030;-79
2021/09/13 02:05:08;;;;;;;;;;;16.20;99.90;;;;;;4995930;28;20497;-79
2021/09/13 02:07:34;;;;;;;5.55;2.80;;;16.10;99.90;;;;;;5012660;28;19925;-78
2021/09/13 02:10:00;;;;;;;;;;;16.10;99.90;;;;;;4995928;28;20018;-79
2021/09/13 02:12:26;;;;;;;6.20;2.50;;;16.00;99.90;;;;;;5013376;28;19911;-79
2021/09/13 02:14:51;;;;;;;4.68;2.20;;;16.10;99.90;;;;;;5013077;28;20030;-79
2021/09/13 02:17:17;;;;;;;5.28;2.15;;;16.10;99.90;;;;;;4995360;28;20037;-79
2021/09/13 02:19:44;;;;;;;5.35;1.90;;;16.10;99.90;;;;;;5013024;28;20029;-79
2021/09/13 02:22:10;;;;;;;5.25;2.38;;;15.90;99.90;;;;;;4998369;28;20033;-78
2021/09/13 02:24:35;;;;;;;;;;;16.10;99.90;;;;;;4999378;28;20502;-78
2021/09/13 02:27:01;;;;;;;5.30;1.90;;;16.30;99.90;;;;;;5016513;28;19915;-78
2021/09/13 02:29:27;;;;;;;4.97;1.70;;;16.20;99.90;;;;;;5016524;28;20037;-77
2021/09/13 02:31:53;;;;;;;3.63;1.75;;;16.00;99.90;;;;;;5016773;28;20022;-81
2021/09/13 02:34:18;;;;;;;5.22;1.80;;;15.80;99.90;;;;;;5016460;28;20018;-81
2021/09/13 02:36:44;;;;;;;5.50;2.15;;;15.60;99.90;;;;;;5016497;28;20459;-81
2021/09/13 02:39:10;;;;;;;4.68;2.00;;;15.30;99.90;;;;;;5016324;28;20022;-81
2021/09/13 02:41:38;;;;;;;4.80;1.88;;;15.50;99.90;;;;;;4998729;28;20036;-80
2021/09/13 02:44:04;;;;;;;7.38;2.00;;;15.30;99.90;;;;;;5016270;28;20021;-81
2021/09/13 02:46:29;;;;;;;;;;;15.40;99.90;;;;;;5016641;28;20030;-81
2021/09/13 02:48:55;;;;;;;9.23;2.00;;;15.50;99.90;;;;;;5016226;28;20301;-81
2021/09/13 02:51:22;;;;;;;4.50;1.98;;;15.80;99.90;;;;;;5016125;28;20026;-81
2021/09/13 02:53:48;;;;;;;6.68;2.20;;;15.80;99.90;;;;;;5016108;28;20046;-81
2021/09/13 02:56:13;;;;;;;;;;;15.70;99.90;;;;;;4998785;28;20489;-81
2021/09/13 02:58:39;;;;;;;6.28;2.25;;;15.80;99.90;;;;;;4998432;28;20004;-81
2021/09/13 03:01:05;;;;;;;6.50;2.10;;;15.70;99.90;;;;;;4998382;28;20109;-81
2021/09/13 03:03:31;;;;;;;4.60;2.08;;;15.30;99.90;;;;;;5015849;28;20024;-81
2021/09/13 03:05:56;;;;;;;5.75;2.13;;;15.10;99.90;;;;;;5015644;28;20537;-81
2021/09/13 03:08:22;;;;;;;11.07;2.00;;;15.10;99.90;;;;;;5015737;28;20205;-81
2021/09/13 03:10:48;;;;;;;;;;;15.20;99.90;;;;;;5016240;28;20418;-81
2021/09/13 03:13:13;;;;;;;;;;;15.50;99.90;;;;;;5016249;28;20358;-80
2021/09/13 03:15:39;;;;;;;;;;;15.60;99.90;;;;;;5016103;28;19905;-82
2021/09/13 03:18:04;;;;;;;;;;;15.50;99.90;;;;;;4998447;28;19912;-81
2021/09/13 03:20:30;;;;;;;;;;;15.50;99.90;;;;;;4998447;28;19905;-81
2021/09/13 03:22:56;;;;;;;;;;;15.40;99.90;;;;;;5015987;28;19995;-81
2021/09/13 03:25:23;;;;;;;;;;;15.00;99.90;;;;;;5015931;28;19905;-81
2021/09/13 03:27:49;;;;;;;7.28;2.40;;;14.80;99.90;;;;;;5015335;28;19913;-80
2021/09/13 03:30:15;;;;;;;6.15;1.90;;;14.70;99.90;;;;;;5015416;28;20014;-81
2021/09/13 03:32:41;;;;;;;;;;;15.00;99.90;;;;;;4997593;28;20035;-81
2021/09/13 03:35:07;;;;;;;5.50;1.80;;;15.10;99.90;;;;;;4997728;28;19909;-81
2021/09/13 03:37:33;;;;;;;5.53;2.05;;;15.30;99.90;;;;;;5015243;28;20029;-81
2021/09/13 03:39:59;;;;;;;6.45;2.15;;;15.30;99.90;;;;;;5015238;28;20030;-80
2021/09/13 03:42:25;;;;;;;4.15;1.85;;;15.30;99.90;;;;;;5015531;28;20033;-81
2021/09/13 03:44:51;;;;;;;9.27;1.98;;;15.50;99.90;;;;;;5015134;28;20494;-81
2021/09/13 03:47:16;;;;;;;7.18;2.80;;;15.30;99.90;;;;;;4997411;28;20030;-81
2021/09/13 03:49:42;;;;;;;6.25;2.60;;;15.00;99.90;;;;;;5015270;28;20479;-81
2021/09/13 03:52:08;;;;;;;7.47;2.47;;;15.10;99.90;;;;;;4997379;28;20037;-81
2021/09/13 03:54:38;;;;;;;3.50;1.70;;;15.20;99.90;;;;;;4997346;28;20033;-81
2021/09/13 03:57:04;;;;;;;4.00;1.70;;;15.30;99.90;;;;;;5014925;28;20045;-81
2021/09/13 03:59:31;;;;;;;4.35;2.05;;;15.30;99.90;;;;;;4997239;28;20394;-81
2021/09/13 04:02:00;;;;;;;12.20;5.80;;;15.40;99.90;;;;;;5014814;28;20033;-80
2021/09/13 04:04:27;;;;;;;11.25;6.13;;;15.60;99.90;;;;;;4997120;28;20048;-81
2021/09/13 04:07:02;;;;;;;7.15;2.80;;;15.70;99.90;;;;;;5014413;28;20061;-81
2021/09/13 04:11:57;;;;;;;8.85;2.45;;;15.20;99.90;;;;;;5015099;28;20021;-81
2021/09/13 04:14:28;;;;;;;6.95;2.20;;;15.20;99.90;;;;;;5014589;28;20045;-81
2021/09/13 04:16:55;;;;;;;5.15;2.00;;;15.30;99.90;;;;;;5014684;28;20030;-80
2021/09/13 04:19:22;;;;;;;13.20;2.50;;;15.20;99.90;;;;;;5014548;28;20033;-81
2021/09/13 04:21:49;;;;;;;5.35;2.00;;;14.90;99.90;;;;;;5014416;28;20090;-81
2021/09/13 04:24:14;;;;;;;5.78;1.95;;;14.80;99.90;;;;;;5014387;28;20029;-81
2021/09/13 04:26:40;;;;;;;;;;;15.20;99.90;;;;;;5015235;28;20395;-81
2021/09/13 04:29:06;;;;;;;;;;;15.60;99.90;;;;;;5014774;28;20259;-81
2021/09/13 04:31:32;;;;;;;7.30;2.10;;;15.50;99.90;;;;;;5014339;28;19913;-81
2021/09/13 04:33:59;;;;;;;4.43;1.83;;;15.50;99.90;;;;;;4996603;28;20049;-81
2021/09/13 04:36:24;;;;;;;;;;;15.40;99.90;;;;;;5014627;28;20394;-81
2021/09/13 04:38:50;;;;;;;4.32;1.63;;;15.60;99.90;;;;;;5014235;28;19906;-81
2021/09/13 04:41:16;;;;;;;6.55;1.85;;;15.60;99.90;;;;;;5014133;28;20026;-81
2021/09/13 04:43:42;;;;;;;2.72;1.58;;;15.60;99.90;;;;;;5013745;28;20509;-81
2021/09/13 04:46:08;;;;;;;;;;;15.70;99.90;;;;;;4996387;28;20026;-81
2021/09/13 04:48:34;;;;;;;5.43;1.55;;;15.60;99.90;;;;;;4996362;28;19916;-81
2021/09/13 04:51:00;;;;;;;;;;;15.60;99.90;;;;;;5014713;28;20022;-81
2021/09/13 04:53:25;;;;;;;7.40;2.53;;;15.40;99.90;;;;;;5013942;28;19955;-81
2021/09/13 04:55:51;;;;;;;7.00;2.50;;;15.40;99.90;;;;;;5013924;28;20030;-81
2021/09/13 04:58:17;;;;;;;7.68;2.20;;;15.60;99.90;;;;;;4996226;28;20041;-81
2021/09/13 05:00:42;;;;;;;;;;;15.50;99.90;;;;;;5014245;28;20033;-81
2021/09/13 05:03:08;;;;;;;;;;;15.30;99.90;;;;;;5014228;28;19905;-81
2021/09/13 05:05:34;;;;;;;;;;;15.30;99.90;;;;;;5014299;28;20274;-81
2021/09/13 05:07:59;;;;;;;;;;;15.40;99.90;;;;;;5014215;28;20254;-81
2021/09/13 05:10:25;;;;;;;;;;;15.30;99.90;;;;;;4996503;28;20278;-81
2021/09/13 05:12:51;;;;;;;6.95;2.53;;;15.20;99.90;;;;;;5013846;28;19906;-82
2021/09/13 05:15:17;;;;;;;5.68;2.50;;;15.20;99.90;;;;;;5013631;28;20022;-81
2021/09/13 05:17:43;;;;;;;;;;;15.40;99.90;;;;;;5014144;28;20402;-81
2021/09/13 05:20:09;;;;;;;5.45;1.77;;;15.70;99.90;;;;;;5013608;28;19909;-82
2021/09/13 05:22:35;;;;;;;12.07;2.40;;;15.70;99.90;;;;;;4995901;28;20076;-81
2021/09/13 05:25:01;;;;;;;;;;;15.40;99.90;;;;;;5013911;28;20026;-81
2021/09/13 05:27:27;;;;;;;9.43;2.10;;;15.30;99.90;;;;;;5013770;28;19916;-82
2021/09/13 05:29:53;;;;;;;;;;;15.40;99.90;;;;;;5013953;28;20022;-81
2021/09/13 05:32:18;;;;;;;10.18;2.20;;;15.60;99.90;;;;;;5013441;28;19906;-81
2021/09/13 05:34:44;;;;;;;3.65;1.88;;;15.60;99.90;;;;;;5013907;28;20454;-80
2021/09/13 05:37:10;;;;;;;7.57;2.00;;;15.70;99.90;;;;;;5013413;28;20404;-81
2021/09/13 05:39:36;;;;;;;7.78;2.20;;;15.70;99.90;;;;;;5013351;28;20544;-81
2021/09/13 05:42:01;;;;;;;;;;;15.50;99.90;;;;;;5013738;28;20434;-81
2021/09/13 05:44:28;;;;;;;5.25;1.92;;;15.50;99.90;;;;;;5013343;28;19913;-81
2021/09/13 05:46:53;;;;;;;;;;;15.50;99.90;;;;;;5013662;28;20221;-82
2021/09/13 05:49:19;;;;;;;6.93;2.10;;;15.50;99.90;;;;;;5013310;28;20000;-81
2021/09/13 05:51:46;;;;;;;8.00;2.10;;;15.40;99.90;;;;;;4995653;28;20029;-81
2021/09/13 05:54:15;;;;;;;4.97;2.28;;;15.40;99.90;;;;;;5013225;28;20431;-81
2021/09/13 05:56:49;;;;;;;5.53;2.30;;;15.30;99.90;;;;;;5015636;28;20018;-81
2021/09/13 05:59:15;;;;;;;8.93;2.90;;;15.20;99.90;;;;;;4999278;28;20117;-82
2021/09/13 06:01:40;;;;;;;;;;;15.30;99.90;;;;;;5017695;28;20105;-81
2021/09/13 06:04:06;;;;;;;7.40;2.72;;;15.40;99.90;;;;;;4999436;28;19968;-81
2021/09/13 06:06:32;;;;;;;7.65;3.13;;;15.40;99.90;;;;;;5016785;28;20081;-81
2021/09/13 06:08:57;;;;;;;;;;;15.70;99.90;;;;;;5017427;28;20034;-81
2021/09/13 06:11:26;;;;;;;7.40;2.88;;;15.80;99.90;;;;;;5017176;28;19968;-80
2021/09/13 06:13:53;;;;;;;11.13;2.92;;;15.80;99.90;;;;;;5016868;28;20022;-81
2021/09/13 06:16:19;;;;;;;7.18;3.00;;;16.00;99.90;;;;;;5016830;28;20018;-81
2021/09/13 06:18:44;;;;;;;;;;;16.20;99.90;;;;;;5017142;28;20053;-81
2021/09/13 06:21:10;;;;;;;11.00;3.13;;;15.90;99.90;;;;;;5017312;28;19912;-81
2021/09/13 06:23:35;;;;;;;;;;;15.70;99.90;;;;;;5017069;28;20018;-81
2021/09/13 06:26:02;;;;;;;8.60;2.70;;;16.00;99.90;;;;;;5016604;28;19905;-82
2021/09/13 06:28:28;;;;;;;6.93;2.20;;;16.20;99.90;;;;;;5016538;28;20034;-80
2021/09/13 06:30:54;;;;;;;;;;;16.40;99.90;;;;;;4999392;28;20029;-81
2021/09/13 06:33:19;;;;;;;23.25;2.67;;;16.50;99.90;;;;;;5016546;28;19992;-81
2021/09/13 06:35:45;;;;;;;;;;;16.50;99.90;;;;;;5016865;28;20092;-81
2021/09/13 06:38:11;;;;;;;8.27;2.28;;;16.50;99.90;;;;;;5016471;28;19971;-81
2021/09/13 06:40:36;;;;;;;;;;;16.70;99.90;;;;;;5016754;28;20053;-81
2021/09/13 06:43:02;;;;;;;7.85;2.45;;;16.80;99.90;;;;;;5016365;28;19928;-81
2021/09/13 06:45:28;;;;;;;;;;;16.80;99.90;;;;;;5016658;28;20501;-81
2021/09/13 06:47:53;;;;;;;7.55;2.40;;;16.50;99.90;;;;;;5016181;28;19910;-81
2021/09/13 06:50:21;;;;;;;;;;;16.00;99.90;;;;;;5016646;28;20479;-81
2021/09/13 06:52:49;;;;;;;7.90;2.10;;;16.30;99.90;;;;;;4998534;28;19905;-82
2021/09/13 06:55:15;;;;;;;11.60;2.42;;;16.70;99.90;;;;;;4998519;28;20383;-82
2021/09/13 06:57:41;;;;;;;;;;;16.90;99.90;;;;;;4998862;28;20479;-81
2021/09/13 07:00:10;;;;;;;8.15;2.80;;;16.40;99.90;;;;;;5016002;28;19960;-81
2021/09/13 07:02:41;;;;;;;8.63;2.70;;;16.40;99.90;;;;;;5015949;28;20037;-81
2021/09/13 07:05:08;;;;;;;7.85;3.00;;;16.60;99.90;;;;;;5015862;28;20025;-81
2021/09/13 07:07:35;;;;;;;6.50;2.80;;;16.50;99.90;;;;;;5014496;28;20049;-81
2021/09/13 07:10:03;;;;;;;6.53;2.58;;;16.60;99.90;;;;;;4998292;28;20024;-81
2021/09/13 07:12:29;;;;;;;8.52;2.78;;;17.20;99.90;;;;;;5015717;28;20026;-81
2021/09/13 07:14:54;;;;;;;;;;;17.70;99.90;;;;;;5016497;28;20022;-81
2021/09/13 07:17:20;;;;;;;8.80;2.92;;;17.90;99.90;;;;;;5015827;28;20309;-81
2021/09/13 07:19:46;;;;;;;8.40;3.13;;;18.10;99.90;;;;;;5015702;28;20101;-82
2021/09/13 07:22:12;;;;;;;10.65;3.00;;;18.10;99.90;;;;;;4997997;28;20030;-81
2021/09/13 07:24:41;;;;;;;5.35;3.00;;;18.30;99.90;;;;;;5015459;28;20026;-81
2021/09/13 07:27:07;;;;;;;11.23;3.65;;;18.60;99.90;;;;;;4997860;28;20029;-82
2021/09/13 07:29:33;;;;;;;7.47;3.38;;;18.70;99.90;;;;;;5015434;28;20026;-79
2021/09/13 07:32:01;;;;;;;10.82;4.15;;;18.60;99.90;;;;;;4997671;28;20025;-79
2021/09/13 07:34:27;;;;;;;8.23;3.30;;;18.50;99.90;;;;;;5015338;28;20018;-78
2021/09/13 07:36:55;;;;;;;8.80;3.78;;;18.40;99.90;;;;;;4997595;28;20076;-79
2021/09/13 07:39:22;;;;;;;13.40;3.75;;;18.20;99.90;;;;;;4997716;28;20034;-79
2021/09/13 07:41:48;;;;;;;15.35;4.03;;;18.50;99.90;;;;;;5015337;28;20074;-79
2021/09/13 07:44:13;;;;;;;9.07;4.13;;;18.70;99.90;;;;;;5015349;28;20071;-79
2021/09/13 07:46:39;;;;;;;12.88;4.32;;;18.40;99.90;;;;;;5015217;28;20109;-79
2021/09/13 07:49:05;;;;;;;13.43;4.30;;;18.10;99.90;;;;;;4997445;28;20034;-79
2021/09/13 07:51:31;;;;;;;10.20;4.32;;;18.10;99.90;;;;;;5015015;28;20495;-79
2021/09/13 07:53:56;;;;;;;11.52;4.40;;;18.10;99.90;;;;;;5014986;28;20026;-79
2021/09/13 07:56:22;;;;;;;11.18;3.90;;;18.00;99.90;;;;;;5014930;28;20100;-79
2021/09/13 07:58:48;;;;;;;10.40;4.25;;;18.20;99.90;;;;;;5014871;28;20550;-79
2021/09/13 08:01:14;;;;;;;12.35;4.40;;;18.90;99.90;;;;;;5014814;28;20026;-79
2021/09/13 08:03:39;;;;;;;12.02;3.65;;;19.00;99.90;;;;;;4997242;28;20029;-80
2021/09/13 08:06:06;;;;;;;11.52;3.80;;;19.80;99.90;;;;;;5014568;28;20418;-78
2021/09/13 08:08:33;;;;;;;8.57;3.55;;;20.60;99.90;;;;;;4997002;28;20042;-79
2021/09/13 08:10:58;;;;;;;9.35;3.70;;;21.40;99.90;;;;;;5014709;28;20029;-79
2021/09/13 08:13:24;;;;;;;9.88;3.63;;;22.80;99.90;;;;;;5014616;28;20029;-80
2021/09/13 08:15:50;;;;;;;11.23;3.47;;;24.80;99.60;;;;;;5015197;28;20018;-80
2021/09/13 08:18:16;;;;;;;7.40;3.33;;;26.30;96.70;;;;;;5014424;28;20030;-80
2021/09/13 08:20:41;;;;;;;8.13;3.50;;;26.30;95.10;;;;;;4996877;28;20076;-80
2021/09/13 08:23:07;;;;;;;10.25;4.10;;;26.00;95.30;;;;;;4996762;28;20121;-79
2021/09/13 08:25:33;;;;;;;12.18;4.90;;;25.30;95.70;;;;;;5014324;28;20018;-80
2021/09/13 08:27:59;;;;;;;14.95;4.50;;;25.00;95.60;;;;;;4996633;28;20030;-80
2021/09/13 08:30:26;;;;;;;12.25;5.50;;;25.00;95.20;;;;;;4996738;28;20517;-80
2021/09/13 08:32:52;;;;;;;11.80;5.97;;;25.30;93.90;;;;;;5014315;28;20162;-80
2021/09/13 08:35:19;;;;;;;11.85;5.97;;;27.10;92.20;;;;;;4996664;28;20504;-80
2021/09/13 08:37:45;;;;;;;10.25;5.65;;;28.30;90.50;;;;;;5014198;28;20026;-80
2021/09/13 08:40:11;;;;;;;11.07;4.72;;;29.10;85.10;;;;;;5014157;28;20022;-81
2021/09/13 08:42:46;;;;;;;11.48;4.70;;;29.90;82.50;;;;;;5014202;28;20026;-81
2021/09/13 08:45:17;;;;;;;9.48;4.18;;;30.40;78.40;;;;;;4996402;28;20029;-80
2021/09/13 08:48:47;;;;;;;10.32;4.40;;;28.70;80.60;;;;;;5014240;28;20500;-81
2021/09/13 08:51:04;;;;;;;10.40;4.53;;;28.80;80.00;;;;;;5000787;28;20030;-80
2021/09/13 08:53:32;;;;;;;10.80;4.40;;;28.40;80.90;;;;;;5013770;28;20026;-81
2021/09/13 08:55:59;;;;;;;10.98;4.40;;;28.50;80.80;;;;;;4996045;28;20038;-80
2021/09/13 08:58:25;;;;;;;8.77;4.10;;;28.80;81.40;;;;;;4996215;28;20028;-81
2021/09/13 09:00:52;;;;;;;10.48;4.70;;;29.30;77.80;;;;;;5013832;28;20104;-80
2021/09/13 09:03:19;;;;;;;10.70;4.57;;;30.10;77.20;;;;;;5014283;28;20506;-80
2021/09/13 09:05:46;;;;;;;9.27;3.90;;;31.30;73.10;;;;;;4995927;28;20080;-81
2021/09/13 09:08:26;;;;;;;10.82;4.15;;;32.00;71.20;;;;;;4996026;28;20030;-81
2021/09/13 09:11:01;;;;;;;8.45;3.75;;;32.70;68.40;;;;;;4996055;28;20030;-82
2021/09/13 09:13:43;;;;;;;9.48;3.60;;;33.80;65.90;;;;;;4995740;28;20026;-82
2021/09/13 09:16:13;;;;;;;8.50;4.28;;;36.80;58.50;;;;;;5013702;28;20022;-82
2021/09/13 09:18:43;;;;;;;8.27;3.90;;;36.20;56.60;;;;;;5013563;28;20025;-80
2021/09/13 09:21:10;;;;;;;30.25;6.15;;;36.10;56.20;;;;;;5013590;28;20033;-81
2021/09/13 09:24:09;;;;;;;10.43;4.68;;;38.60;52.10;;;;;;4995947;28;20025;-81
2021/09/13 09:26:34;;;;;;;10.07;4.90;;;38.60;51.00;;;;;;4953740;28;20061;-82
2021/09/13 09:29:01;;;;;;;9.02;4.45;;;39.10;48.90;;;;;;4995790;28;20164;-82
2021/09/13 09:31:39;;;;;;;9.13;4.43;;;39.90;48.70;;;;;;4995635;28;20053;-82
2021/09/13 09:34:14;;;;;;;8.10;4.50;;;38.90;47.80;;;;;;4995711;28;20022;-81
2021/09/13 09:36:41;;;;;;;9.40;4.00;;;38.90;47.90;;;;;;5013398;28;20483;-81
2021/09/13 09:39:11;;;;;;;7.78;3.70;;;37.10;49.30;;;;;;5013586;28;20032;-81
2021/09/13 09:41:46;;;;;;;9.57;3.72;;;34.80;52.50;;;;;;4995693;28;20072;-81
2021/09/13 09:44:12;;;;;;;9.32;3.60;;;35.10;53.50;;;;;;5013481;28;20029;-81
2021/09/13 09:46:43;;;;;;;9.95;3.80;;;36.00;51.60;;;;;;5013377;28;20022;-81
2021/09/13 09:49:10;;;;;;;9.05;3.80;;;35.90;52.80;;;;;;5013247;28;20036;-82
2021/09/13 09:51:39;;;;;;;9.43;4.10;;;37.20;51.30;;;;;;5013466;28;20107;-81
2021/09/13 09:54:14;;;;;;;7.55;3.90;;;36.00;51.90;;;;;;4995616;28;20022;-83
2021/09/13 09:56:42;;;;;;;8.98;4.55;;;39.20;49.50;;;;;;4995687;28;20053;-82
2021/09/13 09:59:10;;;;;;;10.40;3.50;;;37.80;48.30;;;;;;4995629;28;20061;-81
2021/09/13 10:01:44;;;;;;;9.45;3.40;;;34.00;53.10;;;;;;4995822;28;20041;-81
2021/09/13 10:04:22;;;;;;;10.27;4.28;;;32.60;55.90;;;;;;4995590;28;20018;-81
2021/09/13 10:06:50;;;;;;;9.32;4.10;;;32.80;57.20;;;;;;4995253;28;20132;-82
2021/09/13 10:09:17;;;;;;;9.38;4.63;;;34.50;54.70;;;;;;4995527;28;20014;-81
2021/09/13 10:11:44;;;;;;;9.20;4.47;;;35.90;52.20;;;;;;5013293;28;20030;-82
2021/09/13 10:14:13;;;;;;;8.32;4.75;;;38.50;49.70;;;;;;5013091;28;20486;-82
2021/09/13 10:16:42;;;;;;;13.73;5.20;;;40.50;47.10;;;;;;4995442;28;20116;-82
2021/09/13 10:19:08;;;;;;;11.55;4.93;;;38.50;48.00;;;;;;4995531;28;20030;-82
2021/09/13 10:21:35;;;;;;;8.80;5.30;;;39.60;47.20;;;;;;4995453;28;20171;-82
2021/09/13 10:24:04;;;;;;;11.25;5.88;;;41.20;45.30;;;;;;5012980;28;20026;-82
2021/09/13 10:26:30;;;;;;;8.77;6.15;;;41.30;45.00;;;;;;5012907;28;20068;-83
2021/09/13 10:29:01;;;;;;;13.13;6.82;;;43.00;43.80;;;;;;5013032;28;20433;-82
2021/09/13 10:31:43;;;;;;;14.57;6.30;;;43.10;42.70;;;;;;4995404;28;20394;-83
2021/09/13 10:34:16;;;;;;;10.32;6.55;;;42.60;43.00;;;;;;4995312;28;20072;-82
2021/09/13 10:37:19;;;;;;;10.18;6.70;;;42.30;43.30;;;;;;5013031;28;20029;-83
2021/09/13 10:40:05;;;;;;;9.50;6.47;;;42.70;42.10;;;;;;4995252;28;20029;-83
2021/09/13 10:43:18;;;;;;;9.77;6.80;;;43.40;42.50;;;;;;4995465;28;20034;-82
2021/09/13 10:45:44;;;;;;;11.27;7.85;;;43.80;41.30;;;;;;4981096;28;20030;-83
2021/09/13 10:48:21;;;;;;;11.63;8.50;;;44.50;41.40;;;;;;5016569;28;20030;-83
2021/09/13 10:50:51;;;;;;;10.43;7.82;;;44.80;40.60;;;;;;4998368;28;20022;-82
2021/09/13 10:53:17;;;;;;;15.68;7.97;;;43.90;40.70;;;;;;5016281;28;20024;-82
2021/09/13 10:56:04;;;;;;;9.85;7.10;;;43.40;40.90;;;;;;4998464;28;20105;-82
2021/09/13 10:58:33;;;;;;;9.95;7.72;;;43.10;41.40;;;;;;5016170;28;20040;-83
2021/09/13 11:01:03;;;;;;;11.45;6.40;;;43.40;40.90;;;;;;4998360;28;20112;-83
2021/09/13 11:03:34;;;;;;;11.48;7.57;;;42.60;41.90;;;;;;5016027;28;20033;-82
2021/09/13 11:06:16;;;;;;;10.20;6.65;;;42.70;41.70;;;;;;5016159;28;20056;-83
2021/09/13 11:08:59;;;;;;;11.07;5.97;;;43.20;41.20;;;;;;4998228;28;20053;-83
2021/09/13 11:11:44;;;;;;;9.18;6.47;;;43.20;41.20;;;;;;4997970;28;20026;-83
2021/09/13 11:14:20;;;;;;;11.30;7.57;;;43.20;41.20;;;;;;5016259;28;20033;-83
2021/09/13 11:16:47;;;;;;;10.32;6.47;;;44.30;40.10;;;;;;4997910;28;20056;-83
2021/09/13 11:19:16;;;;;;;10.55;7.53;;;43.10;41.30;;;;;;5015758;28;20497;-83
2021/09/13 11:21:53;;;;;;;10.25;7.03;;;44.50;40.30;;;;;;5015619;28;20026;-83
2021/09/13 11:24:26;;;;;;;15.88;7.30;;;44.00;40.80;;;;;;5015954;28;20021;-83
2021/09/13 11:26:53;;;;;;;10.73;6.63;;;43.80;40.40;;;;;;4997737;28;20026;-83
2021/09/13 11:29:26;;;;;;;11.77;6.45;;;43.50;41.00;;;;;;4997868;28;20029;-83
2021/09/13 11:32:09;;;;;;;10.98;6.13;;;43.50;40.20;;;;;;5015847;28;20068;-83
2021/09/13 11:34:34;;;;;;;10.20;6.80;;;43.80;40.90;;;;;;4997539;28;20399;-83
2021/09/13 11:37:02;;;;;;;12.15;6.82;;;44.50;39.40;;;;;;4997736;28;20022;-83
2021/09/13 11:39:38;;;;;;;10.98;6.40;;;44.60;39.30;;;;;;5015808;28;20073;-83
2021/09/13 11:42:12;;;;;;;12.70;9.25;;;45.10;39.30;;;;;;4997423;28;20025;-84
2021/09/13 11:44:42;;;;;;;12.95;8.45;;;47.20;38.20;;;;;;5015346;28;20033;-83
2021/09/13 11:47:09;;;;;;;13.90;8.73;;;45.00;38.70;;;;;;5015240;28;20022;-83
2021/09/13 11:49:42;;;;;;;13.93;10.40;;;47.20;38.00;;;;;;5015100;28;20064;-84
2021/09/13 11:52:14;;;;;;;11.07;8.60;;;47.80;36.50;;;;;;5015249;28;20053;-83
2021/09/13 11:54:45;;;;;;;13.40;9.93;;;47.00;38.10;;;;;;4996792;28;20109;-83
2021/09/13 11:57:26;;;;;;;11.25;8.20;;;48.00;37.50;;;;;;4997049;28;20030;-83
2021/09/13 11:59:58;;;;;;;11.35;8.02;;;47.80;37.80;;;;;;5014919;28;20018;-82
2021/09/13 12:02:24;;;;;;;;;;;46.40;36.80;;;;;;5015429;28;20104;-83
2021/09/13 12:04:53;;;;;;;13.15;7.10;;;46.30;37.60;;;;;;5014926;28;20007;-82
2021/09/13 12:07:19;;;;;;;10.65;7.90;;;47.40;37.30;;;;;;4997040;28;20054;-84
2021/09/13 12:09:51;;;;;;;12.52;7.30;;;48.00;36.10;;;;;;5014733;28;20031;-84
2021/09/13 12:12:21;;;;;;;12.70;8.50;;;48.00;36.90;;;;;;5014709;28;20029;-83
2021/09/13 12:14:48;;;;;;;11.98;9.20;;;47.90;35.70;;;;;;5014677;28;20030;-84
2021/09/13 12:17:16;;;;;;;10.57;7.55;;;48.80;35.30;;;;;;5014540;28;20026;-82
2021/09/13 12:19:47;;;;;;;10.57;6.70;;;47.30;36.40;;;;;;5014557;28;20029;-83
2021/09/13 12:22:14;;;;;;;11.65;7.38;;;47.70;36.10;;;;;;5014854;28;20100;-83
2021/09/13 12:24:42;;;;;;;10.68;6.63;;;48.60;35.70;;;;;;5014375;28;20033;-82
2021/09/13 12:27:21;;;;;;;9.85;6.93;;;48.20;35.80;;;;;;4996820;28;20547;-82
2021/09/13 12:30:17;;;;;;;10.27;6.88;;;47.90;35.40;;;;;;5014378;28;20426;-83
2021/09/13 12:33:10;;;;;;;10.68;7.30;;;48.00;35.30;;;;;;5012941;28;20045;-83
2021/09/13 12:35:42;;;;;;;10.10;6.70;;;48.40;35.70;;;;;;5005879;28;20038;-83
2021/09/13 12:38:18;;;;;;;;;;;47.50;35.40;;;;;;4996973;28;20026;-82
2021/09/13 12:40:59;;;;;;;11.68;8.13;;;47.30;36.30;;;;;;4996607;28;19906;-83
2021/09/13 12:43:28;;;;;;;12.27;10.35;;;48.90;34.30;;;;;;5014485;28;20029;-84
2021/09/13 12:46:12;;;;;;;12.90;11.60;;;50.90;33.50;;;;;;5014274;28;20048;-82
2021/09/13 12:48:42;;;;;;;12.50;10.98;;;52.00;33.40;;;;;;5014094;28;20558;-83
2021/09/13 12:51:28;;;;;;;16.60;15.10;;;51.90;33.50;;;;;;5013999;28;20548;-84
2021/09/13 12:54:00;;;;;;;16.55;13.38;;;51.50;32.60;;;;;;5013581;28;20042;-84
2021/09/13 12:56:28;;;;;;;15.57;13.48;;;51.30;32.70;;;;;;4996331;28;20029;-83
2021/09/13 12:59:11;;;;;;;13.20;11.68;;;52.00;32.40;;;;;;4996145;28;20104;-83
2021/09/13 13:01:42;;;;;;;10.60;5.78;;;50.20;32.90;;;;;;5014008;28;20482;-83
2021/09/13 13:04:10;;;;;;;7.70;4.43;;;46.90;34.20;;;;;;4995933;28;20030;-83
2021/09/13 13:06:38;;;;;;;9.10;4.30;;;45.90;35.20;;;;;;5012845;28;20053;-82